sensor_id;sensor_type;location;lat;lon;timestamp;P1;durP1;ratioP1;P2;durP2;ratioP2
32228;SDS011;18717;48.034;11.186;2022-07-23T00:00:32;21.95;;;20.15;;
32228;SDS011;18717;48.034;11.186;2022-07-23T00:03:04;20.63;;;19.00;;
32228;SDS011;18717;48.034;11.186;2022-07-23T00:05:31;22.17;;;20.50;;
32228;SDS011;18717;48.034;11.186;2022-07-23T00:08:02;20.98;;;19.30;;
32228;SDS011;18717;48.034;11.186;2022-07-23T00:10:31;20.80;;;19.10;;
32228;SDS011;18717;48.034;11.186;2022-07-23T00:12:59;21.33;;;19.77;;
32228;SDS011;18717;48.034;11.186;2022-07-23T00:15:27;21.58;;;19.88;;
32228;SDS011;18717;48.034;11.186;2022-07-23T00:17:56;21.77;;;19.98;;
32228;SDS011;18717;48.034;11.186;2022-07-23T00:20:24;20.63;;;19.02;;
32228;SDS011;18717;48.034;11.186;2022-07-23T00:22:52;22.05;;;20.00;;
32228;SDS011;18717;48.034;11.186;2022-07-23T00:25:21;21.17;;;19.63;;
32228;SDS011;18717;48.034;11.186;2022-07-23T00:27:55;21.00;;;19.40;;
32228;SDS011;18717;48.034;11.186;2022-07-23T00:30:22;20.65;;;18.88;;
32228;SDS011;18717;48.034;11.186;2022-07-23T00:32:51;23.45;;;20.35;;
32228;SDS011;18717;48.034;11.186;2022-07-23T00:35:23;21.65;;;19.92;;
32228;SDS011;18717;48.034;11.186;2022-07-23T00:37:52;22.27;;;20.52;;
32228;SDS011;18717;48.034;11.186;2022-07-23T00:40:20;20.83;;;19.15;;
32228;SDS011;18717;48.034;11.186;2022-07-23T00:42:48;22.55;;;20.17;;
32228;SDS011;18717;48.034;11.186;2022-07-23T00:45:16;22.27;;;20.48;;
32228;SDS011;18717;48.034;11.186;2022-07-23T00:47:43;23.17;;;21.10;;
32228;SDS011;18717;48.034;11.186;2022-07-23T00:50:11;23.88;;;21.52;;
32228;SDS011;18717;48.034;11.186;2022-07-23T00:52:41;24.90;;;21.60;;
32228;SDS011;18717;48.034;11.186;2022-07-23T00:55:09;23.27;;;20.77;;
32228;SDS011;18717;48.034;11.186;2022-07-23T00:57:37;22.38;;;20.08;;
32228;SDS011;18717;48.034;11.186;2022-07-23T01:00:06;21.55;;;19.20;;
32228;SDS011;18717;48.034;11.186;2022-07-23T01:02:36;19.75;;;18.15;;
32228;SDS011;18717;48.034;11.186;2022-07-23T01:05:04;35.28;;;19.13;;
32228;SDS011;18717;48.034;11.186;2022-07-23T01:07:33;31.17;;;18.92;;
32228;SDS011;18717;48.034;11.186;2022-07-23T01:10:02;19.15;;;17.65;;
32228;SDS011;18717;48.034;11.186;2022-07-23T01:12:32;20.52;;;18.35;;
32228;SDS011;18717;48.034;11.186;2022-07-23T01:14:59;20.30;;;18.55;;
32228;SDS011;18717;48.034;11.186;2022-07-23T01:17:27;19.83;;;18.23;;
32228;SDS011;18717;48.034;11.186;2022-07-23T01:19:55;20.65;;;18.83;;
32228;SDS011;18717;48.034;11.186;2022-07-23T01:22:22;22.33;;;19.02;;
32228;SDS011;18717;48.034;11.186;2022-07-23T01:24:57;20.73;;;18.77;;
32228;SDS011;18717;48.034;11.186;2022-07-23T01:27:24;21.75;;;19.83;;
32228;SDS011;18717;48.034;11.186;2022-07-23T01:29:52;23.67;;;19.48;;
32228;SDS011;18717;48.034;11.186;2022-07-23T01:32:20;21.88;;;19.90;;
32228;SDS011;18717;48.034;11.186;2022-07-23T01:34:48;21.65;;;18.80;;
32228;SDS011;18717;48.034;11.186;2022-07-23T01:37:15;20.55;;;18.70;;
32228;SDS011;18717;48.034;11.186;2022-07-23T01:39:43;21.70;;;19.63;;
32228;SDS011;18717;48.034;11.186;2022-07-23T01:42:12;22.90;;;20.75;;
32228;SDS011;18717;48.034;11.186;2022-07-23T01:44:40;20.80;;;18.90;;
32228;SDS011;18717;48.034;11.186;2022-07-23T01:47:07;20.67;;;18.85;;
32228;SDS011;18717;48.034;11.186;2022-07-23T01:49:35;20.58;;;18.80;;
32228;SDS011;18717;48.034;11.186;2022-07-23T01:52:03;19.77;;;18.10;;
32228;SDS011;18717;48.034;11.186;2022-07-23T01:54:35;18.88;;;17.48;;
32228;SDS011;18717;48.034;11.186;2022-07-23T01:57:02;17.83;;;16.58;;
32228;SDS011;18717;48.034;11.186;2022-07-23T01:59:31;16.77;;;15.55;;
32228;SDS011;18717;48.034;11.186;2022-07-23T02:01:59;17.45;;;16.13;;
32228;SDS011;18717;48.034;11.186;2022-07-23T02:04:27;16.95;;;15.57;;
32228;SDS011;18717;48.034;11.186;2022-07-23T02:06:54;16.73;;;15.43;;
32228;SDS011;18717;48.034;11.186;2022-07-23T02:09:22;16.88;;;15.38;;
32228;SDS011;18717;48.034;11.186;2022-07-23T02:11:50;15.93;;;14.82;;
32228;SDS011;18717;48.034;11.186;2022-07-23T02:14:17;16.17;;;14.88;;
32228;SDS011;18717;48.034;11.186;2022-07-23T02:16:46;16.00;;;14.80;;
32228;SDS011;18717;48.034;11.186;2022-07-23T02:19:14;16.27;;;15.18;;
32228;SDS011;18717;48.034;11.186;2022-07-23T02:21:42;16.50;;;15.30;;
32228;SDS011;18717;48.034;11.186;2022-07-23T02:24:09;15.60;;;14.60;;
32228;SDS011;18717;48.034;11.186;2022-07-23T02:26:37;16.30;;;15.00;;
32228;SDS011;18717;48.034;11.186;2022-07-23T02:29:05;16.75;;;15.65;;
32228;SDS011;18717;48.034;11.186;2022-07-23T02:31:33;16.05;;;14.73;;
32228;SDS011;18717;48.034;11.186;2022-07-23T02:34:02;16.80;;;15.32;;
32228;SDS011;18717;48.034;11.186;2022-07-23T02:36:30;18.08;;;16.65;;
32228;SDS011;18717;48.034;11.186;2022-07-23T02:38:58;18.02;;;16.55;;
32228;SDS011;18717;48.034;11.186;2022-07-23T02:41:26;17.63;;;16.30;;
32228;SDS011;18717;48.034;11.186;2022-07-23T02:43:53;19.08;;;17.38;;
32228;SDS011;18717;48.034;11.186;2022-07-23T02:46:21;19.08;;;17.48;;
32228;SDS011;18717;48.034;11.186;2022-07-23T02:48:49;18.48;;;16.83;;
32228;SDS011;18717;48.034;11.186;2022-07-23T02:51:18;18.00;;;16.70;;
32228;SDS011;18717;48.034;11.186;2022-07-23T02:53:45;17.98;;;16.38;;
32228;SDS011;18717;48.034;11.186;2022-07-23T02:56:13;19.05;;;17.15;;
32228;SDS011;18717;48.034;11.186;2022-07-23T02:58:41;19.00;;;17.38;;
32228;SDS011;18717;48.034;11.186;2022-07-23T03:01:08;17.75;;;16.35;;
32228;SDS011;18717;48.034;11.186;2022-07-23T03:03:36;17.80;;;16.30;;
32228;SDS011;18717;48.034;11.186;2022-07-23T03:06:04;16.75;;;15.50;;
32228;SDS011;18717;48.034;11.186;2022-07-23T03:08:33;17.58;;;16.13;;
32228;SDS011;18717;48.034;11.186;2022-07-23T03:11:01;17.42;;;15.90;;
32228;SDS011;18717;48.034;11.186;2022-07-23T03:13:29;16.88;;;15.57;;
32228;SDS011;18717;48.034;11.186;2022-07-23T03:15:57;15.13;;;14.10;;
32228;SDS011;18717;48.034;11.186;2022-07-23T03:18:24;15.98;;;14.90;;
32228;SDS011;18717;48.034;11.186;2022-07-23T03:20:52;17.52;;;16.10;;
32228;SDS011;18717;48.034;11.186;2022-07-23T03:23:19;15.50;;;14.40;;
32228;SDS011;18717;48.034;11.186;2022-07-23T03:25:48;15.55;;;14.45;;
32228;SDS011;18717;48.034;11.186;2022-07-23T03:28:20;16.77;;;15.30;;
32228;SDS011;18717;48.034;11.186;2022-07-23T03:30:47;16.25;;;15.13;;
32228;SDS011;18717;48.034;11.186;2022-07-23T03:33:16;15.27;;;14.20;;
32228;SDS011;18717;48.034;11.186;2022-07-23T03:35:44;16.13;;;14.82;;
32228;SDS011;18717;48.034;11.186;2022-07-23T03:38:13;17.45;;;16.05;;
32228;SDS011;18717;48.034;11.186;2022-07-23T03:40:41;15.80;;;14.60;;
32228;SDS011;18717;48.034;11.186;2022-07-23T03:43:10;14.82;;;13.73;;
32228;SDS011;18717;48.034;11.186;2022-07-23T03:45:37;15.07;;;14.07;;
32228;SDS011;18717;48.034;11.186;2022-07-23T03:48:05;16.02;;;14.85;;
32228;SDS011;18717;48.034;11.186;2022-07-23T03:50:33;15.48;;;14.27;;
32228;SDS011;18717;48.034;11.186;2022-07-23T03:53:01;15.23;;;14.23;;
32228;SDS011;18717;48.034;11.186;2022-07-23T03:55:28;15.38;;;14.27;;
32228;SDS011;18717;48.034;11.186;2022-07-23T03:57:56;15.15;;;14.00;;
32228;SDS011;18717;48.034;11.186;2022-07-23T04:00:25;15.55;;;14.32;;
32228;SDS011;18717;48.034;11.186;2022-07-23T04:02:53;16.73;;;15.43;;
32228;SDS011;18717;48.034;11.186;2022-07-23T04:05:20;15.52;;;14.38;;
32228;SDS011;18717;48.034;11.186;2022-07-23T04:07:48;16.50;;;15.40;;
32228;SDS011;18717;48.034;11.186;2022-07-23T04:10:16;16.80;;;15.60;;
32228;SDS011;18717;48.034;11.186;2022-07-23T04:12:43;15.98;;;14.88;;
32228;SDS011;18717;48.034;11.186;2022-07-23T04:15:11;16.38;;;15.18;;
32228;SDS011;18717;48.034;11.186;2022-07-23T04:17:40;16.92;;;15.63;;
32228;SDS011;18717;48.034;11.186;2022-07-23T04:20:08;16.70;;;15.50;;
32228;SDS011;18717;48.034;11.186;2022-07-23T04:22:36;16.48;;;15.18;;
32228;SDS011;18717;48.034;11.186;2022-07-23T04:25:05;16.27;;;15.07;;
32228;SDS011;18717;48.034;11.186;2022-07-23T04:27:33;16.42;;;15.20;;
32228;SDS011;18717;48.034;11.186;2022-07-23T04:30:00;16.73;;;15.07;;
32228;SDS011;18717;48.034;11.186;2022-07-23T04:32:28;16.20;;;15.00;;
32228;SDS011;18717;48.034;11.186;2022-07-23T04:34:57;15.73;;;14.60;;
32228;SDS011;18717;48.034;11.186;2022-07-23T04:37:25;17.20;;;15.73;;
32228;SDS011;18717;48.034;11.186;2022-07-23T04:39:52;15.90;;;14.82;;
32228;SDS011;18717;48.034;11.186;2022-07-23T04:42:20;15.75;;;14.65;;
32228;SDS011;18717;48.034;11.186;2022-07-23T04:44:48;16.42;;;15.18;;
32228;SDS011;18717;48.034;11.186;2022-07-23T04:47:15;16.52;;;15.32;;
32228;SDS011;18717;48.034;11.186;2022-07-23T04:49:43;16.98;;;15.43;;
32228;SDS011;18717;48.034;11.186;2022-07-23T04:52:12;16.10;;;14.85;;
32228;SDS011;18717;48.034;11.186;2022-07-23T04:54:41;16.58;;;15.18;;
32228;SDS011;18717;48.034;11.186;2022-07-23T04:57:09;17.25;;;15.80;;
32228;SDS011;18717;48.034;11.186;2022-07-23T04:59:36;16.70;;;15.35;;
32228;SDS011;18717;48.034;11.186;2022-07-23T05:02:04;16.77;;;15.27;;
32228;SDS011;18717;48.034;11.186;2022-07-23T05:04:32;17.17;;;15.88;;
32228;SDS011;18717;48.034;11.186;2022-07-23T05:06:59;17.10;;;15.77;;
32228;SDS011;18717;48.034;11.186;2022-07-23T05:09:28;16.13;;;14.88;;
32228;SDS011;18717;48.034;11.186;2022-07-23T05:11:56;16.35;;;15.23;;
32228;SDS011;18717;48.034;11.186;2022-07-23T05:14:23;16.13;;;15.02;;
32228;SDS011;18717;48.034;11.186;2022-07-23T05:16:51;16.50;;;15.20;;
32228;SDS011;18717;48.034;11.186;2022-07-23T05:19:19;16.40;;;15.18;;
32228;SDS011;18717;48.034;11.186;2022-07-23T05:21:50;20.38;;;16.83;;
32228;SDS011;18717;48.034;11.186;2022-07-23T05:24:18;17.83;;;16.38;;
32228;SDS011;18717;48.034;11.186;2022-07-23T05:26:47;16.95;;;15.65;;
32228;SDS011;18717;48.034;11.186;2022-07-23T05:29:14;17.73;;;16.23;;
32228;SDS011;18717;48.034;11.186;2022-07-23T05:31:43;17.13;;;15.75;;
32228;SDS011;18717;48.034;11.186;2022-07-23T05:34:10;16.88;;;15.68;;
32228;SDS011;18717;48.034;11.186;2022-07-23T05:36:43;17.38;;;15.60;;
32228;SDS011;18717;48.034;11.186;2022-07-23T05:39:10;16.77;;;15.27;;
32228;SDS011;18717;48.034;11.186;2022-07-23T05:41:38;17.17;;;15.82;;
32228;SDS011;18717;48.034;11.186;2022-07-23T05:44:07;17.73;;;16.30;;
32228;SDS011;18717;48.034;11.186;2022-07-23T05:46:35;15.52;;;14.43;;
32228;SDS011;18717;48.034;11.186;2022-07-23T05:49:02;17.67;;;16.08;;
32228;SDS011;18717;48.034;11.186;2022-07-23T05:51:31;18.40;;;16.88;;
32228;SDS011;18717;48.034;11.186;2022-07-23T05:53:59;17.63;;;16.25;;
32228;SDS011;18717;48.034;11.186;2022-07-23T05:56:26;17.48;;;16.08;;
32228;SDS011;18717;48.034;11.186;2022-07-23T05:58:54;18.67;;;17.08;;
32228;SDS011;18717;48.034;11.186;2022-07-23T06:01:23;17.70;;;16.38;;
32228;SDS011;18717;48.034;11.186;2022-07-23T06:03:51;17.27;;;15.93;;
32228;SDS011;18717;48.034;11.186;2022-07-23T06:06:18;17.17;;;15.77;;
32228;SDS011;18717;48.034;11.186;2022-07-23T06:08:46;17.30;;;15.90;;
32228;SDS011;18717;48.034;11.186;2022-07-23T06:11:14;16.30;;;15.15;;
32228;SDS011;18717;48.034;11.186;2022-07-23T06:13:41;17.60;;;16.20;;
32228;SDS011;18717;48.034;11.186;2022-07-23T06:16:09;17.65;;;16.45;;
32228;SDS011;18717;48.034;11.186;2022-07-23T06:18:38;17.75;;;16.52;;
32228;SDS011;18717;48.034;11.186;2022-07-23T06:21:05;17.05;;;15.85;;
32228;SDS011;18717;48.034;11.186;2022-07-23T06:23:53;16.35;;;15.13;;
32228;SDS011;18717;48.034;11.186;2022-07-23T06:26:21;17.63;;;16.30;;
32228;SDS011;18717;48.034;11.186;2022-07-23T06:28:48;17.10;;;15.77;;
32228;SDS011;18717;48.034;11.186;2022-07-23T06:31:16;16.95;;;15.55;;
32228;SDS011;18717;48.034;11.186;2022-07-23T06:33:45;16.50;;;15.30;;
32228;SDS011;18717;48.034;11.186;2022-07-23T06:36:13;17.67;;;16.38;;
32228;SDS011;18717;48.034;11.186;2022-07-23T06:38:40;17.45;;;16.05;;
32228;SDS011;18717;48.034;11.186;2022-07-23T06:41:10;17.75;;;16.45;;
32228;SDS011;18717;48.034;11.186;2022-07-23T06:43:37;16.77;;;15.68;;
32228;SDS011;18717;48.034;11.186;2022-07-23T06:46:05;17.55;;;16.27;;
32228;SDS011;18717;48.034;11.186;2022-07-23T06:48:33;17.15;;;15.75;;
32228;SDS011;18717;48.034;11.186;2022-07-23T06:51:03;18.33;;;16.90;;
32228;SDS011;18717;48.034;11.186;2022-07-23T06:53:31;17.88;;;16.48;;
32228;SDS011;18717;48.034;11.186;2022-07-23T06:55:59;18.27;;;16.65;;
32228;SDS011;18717;48.034;11.186;2022-07-23T06:58:26;18.23;;;16.73;;
32228;SDS011;18717;48.034;11.186;2022-07-23T07:00:54;17.63;;;16.13;;
32228;SDS011;18717;48.034;11.186;2022-07-23T07:03:23;17.05;;;15.75;;
32228;SDS011;18717;48.034;11.186;2022-07-23T07:05:50;17.40;;;16.10;;
32228;SDS011;18717;48.034;11.186;2022-07-23T07:08:20;18.15;;;16.75;;
32228;SDS011;18717;48.034;11.186;2022-07-23T07:10:48;18.27;;;17.05;;
32228;SDS011;18717;48.034;11.186;2022-07-23T07:13:16;18.15;;;16.75;;
32228;SDS011;18717;48.034;11.186;2022-07-23T07:15:43;18.60;;;17.23;;
32228;SDS011;18717;48.034;11.186;2022-07-23T07:18:11;17.60;;;16.25;;
32228;SDS011;18717;48.034;11.186;2022-07-23T07:20:39;18.98;;;17.33;;
32228;SDS011;18717;48.034;11.186;2022-07-23T07:23:06;18.30;;;16.85;;
32228;SDS011;18717;48.034;11.186;2022-07-23T07:25:35;18.35;;;17.15;;
32228;SDS011;18717;48.034;11.186;2022-07-23T07:28:03;18.88;;;17.45;;
32228;SDS011;18717;48.034;11.186;2022-07-23T07:30:31;17.88;;;16.35;;
32228;SDS011;18717;48.034;11.186;2022-07-23T07:32:59;18.38;;;16.98;;
32228;SDS011;18717;48.034;11.186;2022-07-23T07:35:27;18.90;;;17.50;;
32228;SDS011;18717;48.034;11.186;2022-07-23T07:37:55;19.35;;;17.75;;
32228;SDS011;18717;48.034;11.186;2022-07-23T07:40:22;18.88;;;17.25;;
32228;SDS011;18717;48.034;11.186;2022-07-23T07:42:58;18.45;;;16.98;;
32228;SDS011;18717;48.034;11.186;2022-07-23T07:45:26;18.63;;;16.90;;
32228;SDS011;18717;48.034;11.186;2022-07-23T07:47:54;18.85;;;17.45;;
32228;SDS011;18717;48.034;11.186;2022-07-23T07:50:21;18.30;;;16.85;;
32228;SDS011;18717;48.034;11.186;2022-07-23T07:52:49;18.13;;;16.75;;
32228;SDS011;18717;48.034;11.186;2022-07-23T07:55:17;17.88;;;16.42;;
32228;SDS011;18717;48.034;11.186;2022-07-23T07:57:45;17.75;;;16.35;;
32228;SDS011;18717;48.034;11.186;2022-07-23T08:00:34;19.52;;;17.70;;
32228;SDS011;18717;48.034;11.186;2022-07-23T08:03:01;18.60;;;16.92;;
32228;SDS011;18717;48.034;11.186;2022-07-23T08:05:29;17.98;;;16.67;;
32228;SDS011;18717;48.034;11.186;2022-07-23T08:07:58;18.83;;;17.35;;
32228;SDS011;18717;48.034;11.186;2022-07-23T08:10:26;17.83;;;16.52;;
32228;SDS011;18717;48.034;11.186;2022-07-23T08:12:55;19.02;;;17.48;;
32228;SDS011;18717;48.034;11.186;2022-07-23T08:15:24;19.08;;;17.23;;
32228;SDS011;18717;48.034;11.186;2022-07-23T08:17:53;17.77;;;16.48;;
32228;SDS011;18717;48.034;11.186;2022-07-23T08:20:22;19.50;;;17.90;;
32228;SDS011;18717;48.034;11.186;2022-07-23T08:22:51;18.23;;;16.60;;
32228;SDS011;18717;48.034;11.186;2022-07-23T08:25:20;19.13;;;17.63;;
32228;SDS011;18717;48.034;11.186;2022-07-23T08:27:49;19.50;;;18.08;;
32228;SDS011;18717;48.034;11.186;2022-07-23T08:30:18;19.08;;;17.58;;
32228;SDS011;18717;48.034;11.186;2022-07-23T08:32:49;18.65;;;17.25;;
32228;SDS011;18717;48.034;11.186;2022-07-23T08:35:22;18.85;;;17.35;;
32228;SDS011;18717;48.034;11.186;2022-07-23T08:37:51;18.58;;;17.00;;
32228;SDS011;18717;48.034;11.186;2022-07-23T08:40:19;17.88;;;16.45;;
32228;SDS011;18717;48.034;11.186;2022-07-23T08:42:47;18.05;;;16.63;;
32228;SDS011;18717;48.034;11.186;2022-07-23T08:45:16;17.80;;;16.33;;
32228;SDS011;18717;48.034;11.186;2022-07-23T08:47:47;18.13;;;16.67;;
32228;SDS011;18717;48.034;11.186;2022-07-23T08:50:18;19.63;;;18.13;;
32228;SDS011;18717;48.034;11.186;2022-07-23T08:52:48;17.35;;;15.90;;
32228;SDS011;18717;48.034;11.186;2022-07-23T08:55:17;18.95;;;17.42;;
32228;SDS011;18717;48.034;11.186;2022-07-23T08:57:45;18.13;;;16.52;;
32228;SDS011;18717;48.034;11.186;2022-07-23T09:00:15;18.17;;;16.77;;
32228;SDS011;18717;48.034;11.186;2022-07-23T09:02:44;18.67;;;17.27;;
32228;SDS011;18717;48.034;11.186;2022-07-23T09:05:13;18.77;;;17.38;;
32228;SDS011;18717;48.034;11.186;2022-07-23T09:10:43;19.65;;;18.05;;
32228;SDS011;18717;48.034;11.186;2022-07-23T09:13:31;18.65;;;17.15;;
32228;SDS011;18717;48.034;11.186;2022-07-23T09:16:01;17.63;;;16.23;;
32228;SDS011;18717;48.034;11.186;2022-07-23T09:21:12;18.25;;;16.85;;
32228;SDS011;18717;48.034;11.186;2022-07-23T09:23:43;18.88;;;17.38;;
32228;SDS011;18717;48.034;11.186;2022-07-23T09:26:22;18.15;;;16.70;;
32228;SDS011;18717;48.034;11.186;2022-07-23T09:28:52;18.17;;;16.77;;
32228;SDS011;18717;48.034;11.186;2022-07-23T09:31:21;18.25;;;17.02;;
32228;SDS011;18717;48.034;11.186;2022-07-23T09:33:49;18.40;;;16.73;;
32228;SDS011;18717;48.034;11.186;2022-07-23T09:36:26;18.23;;;17.02;;
32228;SDS011;18717;48.034;11.186;2022-07-23T09:38:57;17.85;;;16.60;;
32228;SDS011;18717;48.034;11.186;2022-07-23T09:41:24;18.80;;;17.25;;
32228;SDS011;18717;48.034;11.186;2022-07-23T09:43:55;17.48;;;16.27;;
32228;SDS011;18717;48.034;11.186;2022-07-23T09:46:24;18.45;;;17.17;;
32228;SDS011;18717;48.034;11.186;2022-07-23T09:48:53;18.13;;;16.73;;
32228;SDS011;18717;48.034;11.186;2022-07-23T09:51:23;18.70;;;17.20;;
32228;SDS011;18717;48.034;11.186;2022-07-23T09:56:23;19.15;;;17.55;;
32228;SDS011;18717;48.034;11.186;2022-07-23T09:58:53;17.27;;;15.98;;
32228;SDS011;18717;48.034;11.186;2022-07-23T10:01:29;18.35;;;17.02;;
32228;SDS011;18717;48.034;11.186;2022-07-23T10:03:58;17.50;;;16.30;;
32228;SDS011;18717;48.034;11.186;2022-07-23T10:06:26;17.48;;;16.30;;
32228;SDS011;18717;48.034;11.186;2022-07-23T10:08:54;17.60;;;16.50;;
32228;SDS011;18717;48.034;11.186;2022-07-23T10:11:27;19.77;;;18.23;;
32228;SDS011;18717;48.034;11.186;2022-07-23T10:13:54;17.52;;;16.33;;
32228;SDS011;18717;48.034;11.186;2022-07-23T10:16:25;18.10;;;16.90;;
32228;SDS011;18717;48.034;11.186;2022-07-23T10:18:53;16.33;;;15.23;;
32228;SDS011;18717;48.034;11.186;2022-07-23T10:21:24;17.88;;;16.65;;
32228;SDS011;18717;48.034;11.186;2022-07-23T10:24:10;18.08;;;16.88;;
32228;SDS011;18717;48.034;11.186;2022-07-23T10:26:48;17.20;;;15.90;;
32228;SDS011;18717;48.034;11.186;2022-07-23T10:29:22;16.88;;;15.57;;
32228;SDS011;18717;48.034;11.186;2022-07-23T10:31:56;16.88;;;15.65;;
32228;SDS011;18717;48.034;11.186;2022-07-23T10:34:34;16.80;;;15.60;;
32228;SDS011;18717;48.034;11.186;2022-07-23T10:37:07;18.08;;;16.85;;
32228;SDS011;18717;48.034;11.186;2022-07-23T10:39:47;17.08;;;15.90;;
32228;SDS011;18717;48.034;11.186;2022-07-23T10:42:16;17.83;;;16.42;;
32228;SDS011;18717;48.034;11.186;2022-07-23T10:44:45;19.02;;;17.38;;
32228;SDS011;18717;48.034;11.186;2022-07-23T10:47:20;19.40;;;17.70;;
32228;SDS011;18717;48.034;11.186;2022-07-23T10:50:19;17.70;;;16.40;;
32228;SDS011;18717;48.034;11.186;2022-07-23T10:55:41;17.23;;;15.95;;
32228;SDS011;18717;48.034;11.186;2022-07-23T10:58:12;17.75;;;16.45;;
32228;SDS011;18717;48.034;11.186;2022-07-23T11:00:47;17.92;;;16.55;;
32228;SDS011;18717;48.034;11.186;2022-07-23T11:03:28;18.23;;;16.85;;
32228;SDS011;18717;48.034;11.186;2022-07-23T11:05:59;18.80;;;17.42;;
32228;SDS011;18717;48.034;11.186;2022-07-23T11:08:27;16.92;;;15.77;;
32228;SDS011;18717;48.034;11.186;2022-07-23T11:10:55;18.52;;;16.80;;
32228;SDS011;18717;48.034;11.186;2022-07-23T11:13:40;17.50;;;16.27;;
32228;SDS011;18717;48.034;11.186;2022-07-23T11:16:20;18.25;;;16.95;;
32228;SDS011;18717;48.034;11.186;2022-07-23T11:18:52;18.27;;;17.08;;
32228;SDS011;18717;48.034;11.186;2022-07-23T11:21:41;16.77;;;15.52;;
32228;SDS011;18717;48.034;11.186;2022-07-23T11:24:19;17.33;;;16.02;;
32228;SDS011;18717;48.034;11.186;2022-07-23T11:26:49;17.90;;;16.60;;
32228;SDS011;18717;48.034;11.186;2022-07-23T11:32:21;17.92;;;16.42;;
32228;SDS011;18717;48.034;11.186;2022-07-23T11:37:49;17.40;;;16.10;;
32228;SDS011;18717;48.034;11.186;2022-07-23T11:40:20;17.88;;;16.58;;
32228;SDS011;18717;48.034;11.186;2022-07-23T11:42:51;18.42;;;17.05;;
32228;SDS011;18717;48.034;11.186;2022-07-23T11:45:22;17.45;;;15.75;;
32228;SDS011;18717;48.034;11.186;2022-07-23T11:47:50;17.75;;;16.45;;
32228;SDS011;18717;48.034;11.186;2022-07-23T11:50:18;17.08;;;15.80;;
32228;SDS011;18717;48.034;11.186;2022-07-23T11:52:46;17.48;;;16.27;;
32228;SDS011;18717;48.034;11.186;2022-07-23T11:55:13;17.40;;;16.20;;
32228;SDS011;18717;48.034;11.186;2022-07-23T11:57:43;17.90;;;16.60;;
32228;SDS011;18717;48.034;11.186;2022-07-23T12:00:11;17.40;;;16.30;;
32228;SDS011;18717;48.034;11.186;2022-07-23T12:02:42;18.27;;;17.08;;
32228;SDS011;18717;48.034;11.186;2022-07-23T12:05:11;17.38;;;16.23;;
32228;SDS011;18717;48.034;11.186;2022-07-23T12:07:41;16.80;;;15.48;;
32228;SDS011;18717;48.034;11.186;2022-07-23T12:10:12;17.90;;;16.42;;
32228;SDS011;18717;48.034;11.186;2022-07-23T12:12:41;19.15;;;17.77;;
32228;SDS011;18717;48.034;11.186;2022-07-23T12:15:10;19.33;;;17.92;;
32228;SDS011;18717;48.034;11.186;2022-07-23T12:17:40;17.55;;;16.17;;
32228;SDS011;18717;48.034;11.186;2022-07-23T12:20:17;16.90;;;15.65;;
32228;SDS011;18717;48.034;11.186;2022-07-23T12:22:46;17.77;;;16.45;;
32228;SDS011;18717;48.034;11.186;2022-07-23T12:25:16;18.55;;;17.15;;
32228;SDS011;18717;48.034;11.186;2022-07-23T12:27:45;17.65;;;16.30;;
32228;SDS011;18717;48.034;11.186;2022-07-23T12:30:18;18.50;;;16.98;;
32228;SDS011;18717;48.034;11.186;2022-07-23T12:32:51;17.67;;;16.15;;
32228;SDS011;18717;48.034;11.186;2022-07-23T12:37:50;18.52;;;17.08;;
32228;SDS011;18717;48.034;11.186;2022-07-23T12:40:22;17.92;;;16.67;;
32228;SDS011;18717;48.034;11.186;2022-07-23T12:42:52;18.02;;;16.65;;
32228;SDS011;18717;48.034;11.186;2022-07-23T12:45:21;18.08;;;16.88;;
32228;SDS011;18717;48.034;11.186;2022-07-23T12:50:40;18.08;;;16.80;;
32228;SDS011;18717;48.034;11.186;2022-07-23T12:53:11;17.83;;;16.42;;
32228;SDS011;18717;48.034;11.186;2022-07-23T12:55:49;17.98;;;16.58;;
32228;SDS011;18717;48.034;11.186;2022-07-23T12:58:42;18.95;;;17.45;;
32228;SDS011;18717;48.034;11.186;2022-07-23T13:01:22;18.05;;;16.75;;
32228;SDS011;18717;48.034;11.186;2022-07-23T13:03:57;18.63;;;17.15;;
32228;SDS011;18717;48.034;11.186;2022-07-23T13:06:30;17.60;;;16.10;;
32228;SDS011;18717;48.034;11.186;2022-07-23T13:08:58;17.30;;;16.20;;
32228;SDS011;18717;48.034;11.186;2022-07-23T13:11:28;17.58;;;16.15;;
32228;SDS011;18717;48.034;11.186;2022-07-23T13:13:56;18.02;;;16.70;;
32228;SDS011;18717;48.034;11.186;2022-07-23T13:16:23;17.20;;;15.90;;
32228;SDS011;18717;48.034;11.186;2022-07-23T13:18:53;18.33;;;16.92;;
32228;SDS011;18717;48.034;11.186;2022-07-23T13:21:26;17.00;;;15.90;;
32228;SDS011;18717;48.034;11.186;2022-07-23T13:23:54;16.95;;;15.85;;
32228;SDS011;18717;48.034;11.186;2022-07-23T13:26:22;16.77;;;15.65;;
32228;SDS011;18717;48.034;11.186;2022-07-23T13:28:50;18.38;;;17.20;;
32228;SDS011;18717;48.034;11.186;2022-07-23T13:31:18;19.08;;;17.55;;
32228;SDS011;18717;48.034;11.186;2022-07-23T13:33:46;16.33;;;15.23;;
32228;SDS011;18717;48.034;11.186;2022-07-23T13:36:15;18.10;;;16.90;;
32228;SDS011;18717;48.034;11.186;2022-07-23T13:38:44;18.33;;;17.02;;
32228;SDS011;18717;48.034;11.186;2022-07-23T13:41:11;17.40;;;16.10;;
32228;SDS011;18717;48.034;11.186;2022-07-23T13:43:39;17.77;;;16.55;;
32228;SDS011;18717;48.034;11.186;2022-07-23T13:46:07;18.73;;;17.38;;
32228;SDS011;18717;48.034;11.186;2022-07-23T13:48:34;18.88;;;17.40;;
32228;SDS011;18717;48.034;11.186;2022-07-23T13:51:02;18.05;;;16.55;;
32228;SDS011;18717;48.034;11.186;2022-07-23T13:53:30;18.05;;;16.67;;
32228;SDS011;18717;48.034;11.186;2022-07-23T13:55:59;18.20;;;16.80;;
32228;SDS011;18717;48.034;11.186;2022-07-23T13:58:27;19.10;;;17.45;;
32228;SDS011;18717;48.034;11.186;2022-07-23T14:00:56;17.70;;;16.55;;
32228;SDS011;18717;48.034;11.186;2022-07-23T14:03:24;18.92;;;17.52;;
32228;SDS011;18717;48.034;11.186;2022-07-23T14:05:53;18.13;;;16.83;;
32228;SDS011;18717;48.034;11.186;2022-07-23T14:08:21;19.35;;;17.95;;
32228;SDS011;18717;48.034;11.186;2022-07-23T14:10:49;19.00;;;17.70;;
32228;SDS011;18717;48.034;11.186;2022-07-23T14:13:19;19.40;;;18.00;;
32228;SDS011;18717;48.034;11.186;2022-07-23T14:15:47;18.27;;;17.00;;
32228;SDS011;18717;48.034;11.186;2022-07-23T14:18:16;19.83;;;18.35;;
32228;SDS011;18717;48.034;11.186;2022-07-23T14:20:44;18.38;;;16.85;;
32228;SDS011;18717;48.034;11.186;2022-07-23T14:23:11;18.73;;;17.33;;
32228;SDS011;18717;48.034;11.186;2022-07-23T14:25:40;18.15;;;16.92;;
32228;SDS011;18717;48.034;11.186;2022-07-23T14:28:08;18.70;;;17.42;;
32228;SDS011;18717;48.034;11.186;2022-07-23T14:30:39;19.02;;;17.50;;
32228;SDS011;18717;48.034;11.186;2022-07-23T14:33:10;19.08;;;17.58;;
32228;SDS011;18717;48.034;11.186;2022-07-23T14:35:38;17.70;;;16.42;;
32228;SDS011;18717;48.034;11.186;2022-07-23T14:38:05;17.98;;;16.77;;
32228;SDS011;18717;48.034;11.186;2022-07-23T14:40:33;18.42;;;17.13;;
32228;SDS011;18717;48.034;11.186;2022-07-23T14:43:02;17.88;;;16.58;;